createdAt,value
2022-08-27T00:00:09.350Z,0.00
2022-08-27T00:01:12.011Z,0.00
2022-08-27T00:02:09.412Z,0.00
2022-08-27T00:03:09.321Z,0.00
2022-08-27T00:04:09.363Z,0.00
2022-08-27T00:05:09.304Z,0.00
2022-08-27T00:06:09.301Z,0.00
2022-08-27T00:07:09.286Z,0.00
2022-08-27T00:08:09.490Z,0.00
2022-08-27T00:09:09.256Z,0.00
2022-08-27T00:10:09.248Z,0.00
2022-08-27T00:11:09.289Z,0.00
2022-08-27T00:12:09.228Z,0.00
2022-08-27T00:13:09.224Z,0.00
2022-08-27T00:14:09.204Z,0.00
2022-08-27T00:15:09.198Z,0.00
2022-08-27T00:16:09.263Z,0.00
2022-08-27T00:17:09.215Z,0.00
2022-08-27T00:18:09.427Z,0.00
2022-08-27T00:19:09.164Z,0.00
2022-08-27T00:20:09.153Z,0.00
2022-08-27T00:21:09.145Z,0.00
2022-08-27T00:22:09.151Z,0.00
2022-08-27T00:23:09.134Z,0.00
2022-08-27T00:24:09.113Z,0.00
2022-08-27T00:25:09.108Z,0.00
2022-08-27T00:26:09.096Z,0.00
2022-08-27T00:27:09.117Z,0.00
2022-08-27T00:28:09.279Z,0.00
2022-08-27T00:29:09.071Z,0.00
2022-08-27T00:30:09.060Z,0.00
2022-08-27T00:31:11.382Z,0.00
2022-08-27T00:32:09.202Z,0.00
2022-08-27T00:33:09.028Z,0.00
2022-08-27T00:34:09.021Z,0.00
2022-08-27T00:35:09.007Z,0.00
2022-08-27T00:36:09.000Z,0.00
2022-08-27T00:37:09.005Z,0.00
2022-08-27T00:38:09.256Z,0.00
2022-08-27T00:39:08.971Z,0.00
2022-08-27T00:40:09.043Z,0.00
2022-08-27T00:41:08.957Z,0.00
2022-08-27T00:42:08.957Z,0.00
2022-08-27T00:43:08.927Z,0.00
2022-08-27T00:44:08.921Z,0.00
2022-08-27T00:45:08.911Z,0.00
2022-08-27T00:46:08.930Z,0.00
2022-08-27T00:47:08.950Z,0.00
2022-08-27T00:48:09.120Z,0.00
2022-08-27T00:49:08.869Z,0.00
2022-08-27T00:50:08.900Z,0.00
2022-08-27T00:51:08.854Z,0.00
2022-08-27T00:52:08.871Z,0.00
2022-08-27T00:53:08.831Z,0.00
2022-08-27T00:54:08.824Z,0.00
2022-08-27T00:55:08.811Z,0.00
2022-08-27T00:56:08.811Z,0.00
2022-08-27T00:57:08.795Z,0.00
2022-08-27T00:58:09.124Z,0.00
2022-08-27T00:59:08.802Z,0.00
2022-08-27T01:00:08.773Z,0.00
2022-08-27T01:01:08.807Z,0.00
2022-08-27T01:02:08.808Z,0.00
2022-08-27T01:03:08.756Z,0.00
2022-08-27T01:04:08.738Z,0.00
2022-08-27T01:05:08.749Z,0.00
2022-08-27T01:06:08.710Z,0.00
2022-08-27T01:07:08.697Z,0.00
2022-08-27T01:08:08.862Z,0.00
2022-08-27T01:09:08.680Z,0.00
2022-08-27T01:10:08.670Z,0.00
2022-08-27T01:11:08.661Z,0.00
2022-08-27T01:12:08.652Z,0.00
2022-08-27T01:13:08.657Z,0.00
2022-08-27T01:14:08.630Z,0.00
2022-08-27T01:15:08.624Z,0.00
2022-08-27T01:16:08.666Z,0.00
2022-08-27T01:17:08.607Z,0.00
2022-08-27T01:18:08.652Z,0.00
2022-08-27T01:19:08.585Z,0.00
2022-08-27T01:20:08.588Z,0.00
2022-08-27T01:21:08.567Z,0.00
2022-08-27T01:22:08.559Z,0.00
2022-08-27T01:23:08.582Z,0.00
2022-08-27T01:24:08.541Z,0.00
2022-08-27T01:25:08.527Z,0.00
2022-08-27T01:26:08.522Z,0.00
2022-08-27T01:27:13.579Z,0.00
2022-08-27T01:28:09.779Z,0.00
2022-08-27T01:29:08.498Z,0.00
2022-08-27T01:30:08.493Z,0.00
2022-08-27T01:31:08.510Z,0.00
2022-08-27T01:32:08.460Z,0.00
2022-08-27T01:33:08.455Z,0.00
2022-08-27T01:34:08.485Z,0.00
2022-08-27T01:35:08.434Z,0.00
2022-08-27T01:36:08.424Z,0.00
2022-08-27T01:37:08.413Z,0.00
2022-08-27T01:38:11.660Z,0.00
2022-08-27T01:39:09.409Z,0.00
2022-08-27T01:40:08.458Z,0.00
2022-08-27T01:41:08.377Z,0.00
2022-08-27T01:42:08.366Z,0.00
2022-08-27T01:43:08.375Z,0.00
2022-08-27T01:44:08.367Z,0.00
2022-08-27T01:45:08.336Z,0.00
2022-08-27T01:46:08.329Z,0.00
2022-08-27T01:47:08.304Z,0.00
2022-08-27T01:48:09.483Z,0.00
2022-08-27T01:49:08.322Z,0.00
2022-08-27T01:50:08.285Z,0.00
2022-08-27T01:51:08.274Z,0.00
2022-08-27T01:52:08.262Z,0.00
2022-08-27T01:53:08.258Z,0.00
2022-08-27T01:54:08.261Z,0.00
2022-08-27T01:55:08.233Z,0.00
2022-08-27T01:56:08.222Z,0.00
2022-08-27T01:57:08.214Z,0.00
2022-08-27T01:58:08.203Z,0.00
2022-08-27T01:59:09.251Z,0.00
2022-08-27T02:00:08.187Z,0.00
2022-08-27T02:01:08.247Z,0.00
2022-08-27T02:02:08.214Z,0.00
2022-08-27T02:03:08.166Z,0.00
2022-08-27T02:04:08.192Z,0.00
2022-08-27T02:05:08.146Z,0.00
2022-08-27T02:06:08.131Z,0.00
2022-08-27T02:07:08.119Z,0.00
2022-08-27T02:08:08.154Z,0.00
2022-08-27T02:09:08.098Z,0.00
2022-08-27T02:10:08.101Z,0.00
2022-08-27T02:11:08.084Z,0.00
2022-08-27T02:12:08.065Z,0.00
2022-08-27T02:13:08.080Z,0.00
2022-08-27T02:14:13.318Z,0.00
2022-08-27T02:15:09.055Z,0.00
2022-08-27T02:16:08.064Z,0.00
2022-08-27T02:17:08.026Z,0.00
2022-08-27T02:18:08.054Z,0.00
2022-08-27T02:19:09.818Z,0.00
2022-08-27T02:20:08.009Z,0.00
2022-08-27T02:21:07.985Z,0.00
2022-08-27T02:22:07.973Z,0.00
2022-08-27T02:23:07.962Z,0.00
2022-08-27T02:24:07.943Z,0.00
2022-08-27T02:25:10.214Z,0.00
2022-08-27T02:26:07.933Z,0.00
2022-08-27T02:27:07.926Z,0.00
2022-08-27T02:28:07.914Z,0.00
2022-08-27T02:29:07.904Z,0.00
2022-08-27T02:30:07.917Z,0.00
2022-08-27T02:31:07.953Z,0.00
2022-08-27T02:32:07.887Z,0.00
2022-08-27T02:33:08.867Z,0.00
2022-08-27T02:34:07.859Z,0.00
2022-08-27T02:35:07.884Z,0.00
2022-08-27T02:36:07.849Z,0.00
2022-08-27T02:37:07.832Z,0.00
2022-08-27T02:38:07.930Z,0.00
2022-08-27T02:39:07.807Z,0.00
2022-08-27T02:40:07.883Z,0.00
2022-08-27T02:41:07.791Z,0.00
2022-08-27T02:42:07.774Z,0.00
2022-08-27T02:43:07.773Z,0.00
2022-08-27T02:44:10.706Z,0.00
2022-08-27T02:45:07.747Z,0.00
2022-08-27T02:46:07.821Z,0.00
2022-08-27T02:47:07.734Z,0.00
2022-08-27T02:48:07.820Z,0.00
2022-08-27T02:49:07.715Z,0.00
2022-08-27T02:50:07.796Z,0.00
2022-08-27T02:51:07.710Z,0.00
2022-08-27T02:52:07.686Z,0.00
2022-08-27T02:53:07.676Z,0.00
2022-08-27T02:54:09.483Z,0.00
2022-08-27T02:55:07.655Z,0.00
2022-08-27T02:56:07.658Z,0.00
2022-08-27T02:57:07.635Z,0.00
2022-08-27T02:58:07.646Z,0.00
2022-08-27T02:59:07.617Z,0.00
2022-08-27T03:00:07.657Z,0.00
2022-08-27T03:01:11.263Z,0.00
2022-08-27T03:02:08.736Z,0.00
2022-08-27T03:03:07.577Z,0.00
2022-08-27T03:04:07.583Z,0.00
2022-08-27T03:05:07.562Z,0.00
2022-08-27T03:06:07.578Z,0.00
2022-08-27T03:07:07.538Z,0.00
2022-08-27T03:08:08.566Z,0.00
2022-08-27T03:09:07.525Z,0.00
2022-08-27T03:10:07.512Z,0.00
2022-08-27T03:11:07.502Z,0.00
2022-08-27T03:12:07.506Z,0.00
2022-08-27T03:13:07.479Z,0.00
2022-08-27T03:14:07.469Z,0.00
2022-08-27T03:15:07.463Z,0.00
2022-08-27T03:16:07.504Z,0.00
2022-08-27T03:17:07.458Z,0.00
2022-08-27T03:18:07.511Z,0.00
2022-08-27T03:19:07.431Z,0.00
2022-08-27T03:20:07.414Z,0.00
2022-08-27T03:21:08.404Z,0.00
2022-08-27T03:22:07.416Z,0.00
2022-08-27T03:23:07.386Z,0.00
2022-08-27T03:24:11.162Z,0.00
2022-08-27T03:25:07.367Z,0.00
2022-08-27T03:26:07.363Z,0.00
2022-08-27T03:27:07.387Z,0.00
2022-08-27T03:28:22.448Z,0.00
2022-08-27T03:29:08.329Z,0.00
2022-08-27T03:30:07.319Z,0.00
2022-08-27T03:31:07.346Z,0.00
2022-08-27T03:32:07.335Z,0.00
2022-08-27T03:33:07.284Z,0.00
2022-08-27T03:34:07.279Z,0.00
2022-08-27T03:35:07.268Z,0.00
2022-08-27T03:36:07.254Z,0.00
2022-08-27T03:37:07.243Z,0.00
2022-08-27T03:38:07.285Z,0.00
2022-08-27T03:39:07.263Z,0.00
2022-08-27T03:40:07.261Z,0.00
2022-08-27T03:41:07.210Z,0.00
2022-08-27T03:42:07.200Z,0.00
2022-08-27T03:43:07.206Z,0.00
2022-08-27T03:44:07.182Z,0.00
2022-08-27T03:45:07.208Z,0.00
2022-08-27T03:46:07.186Z,0.00
2022-08-27T03:47:07.152Z,0.00
2022-08-27T03:48:07.205Z,0.00
2022-08-27T03:49:07.132Z,0.00
2022-08-27T03:50:07.124Z,0.00
2022-08-27T03:51:07.115Z,0.00
2022-08-27T03:52:07.107Z,0.00
2022-08-27T03:53:07.107Z,0.00
2022-08-27T03:54:07.086Z,0.00
2022-08-27T03:55:07.079Z,0.00
2022-08-27T03:56:07.067Z,0.00
2022-08-27T03:57:07.061Z,0.00
2022-08-27T03:58:07.126Z,0.00
2022-08-27T03:59:07.067Z,0.00
2022-08-27T04:00:07.030Z,0.00
2022-08-27T04:01:07.022Z,0.00
2022-08-27T04:02:07.081Z,0.00
2022-08-27T04:03:07.076Z,0.00
2022-08-27T04:04:06.990Z,0.00
2022-08-27T04:05:06.978Z,0.00
2022-08-27T04:06:06.987Z,0.00
2022-08-27T04:07:06.985Z,0.00
2022-08-27T04:08:07.032Z,0.00
2022-08-27T04:09:06.981Z,0.00
2022-08-27T04:10:06.928Z,0.00
2022-08-27T04:11:06.918Z,0.00
2022-08-27T04:12:06.903Z,0.00
2022-08-27T04:13:06.899Z,0.00
2022-08-27T04:14:22.652Z,0.00
2022-08-27T04:15:07.879Z,0.00
2022-08-27T04:16:06.935Z,0.00
2022-08-27T04:17:06.858Z,0.00
2022-08-27T04:18:06.848Z,0.00
2022-08-27T04:19:06.870Z,0.00
2022-08-27T04:20:31.866Z,0.00
2022-08-27T04:21:08.822Z,0.00
2022-08-27T04:22:06.815Z,0.00
2022-08-27T04:23:06.805Z,0.00
2022-08-27T04:24:06.794Z,0.00
2022-08-27T04:25:10.434Z,0.00
2022-08-27T04:26:06.774Z,0.00
2022-08-27T04:27:06.775Z,0.00
2022-08-27T04:28:06.758Z,0.00
2022-08-27T04:29:06.741Z,0.00
2022-08-27T04:30:06.833Z,0.00
2022-08-27T04:31:07.700Z,0.00
2022-08-27T04:32:07.713Z,0.00
2022-08-27T04:33:06.700Z,0.00
2022-08-27T04:34:06.694Z,0.00
2022-08-27T04:35:06.709Z,0.00
2022-08-27T04:36:06.676Z,0.00
2022-08-27T04:37:06.663Z,0.00
2022-08-27T04:38:06.654Z,0.00
2022-08-27T04:39:06.644Z,0.00
2022-08-27T04:40:07.084Z,0.00
2022-08-27T04:41:06.622Z,0.00
2022-08-27T04:42:06.616Z,0.00
2022-08-27T04:43:06.613Z,0.00
2022-08-27T04:44:06.592Z,0.00
2022-08-27T04:45:06.627Z,0.00
2022-08-27T04:46:06.631Z,0.00
2022-08-27T04:47:06.565Z,0.00
2022-08-27T04:48:06.659Z,0.00
2022-08-27T04:49:10.154Z,0.00
2022-08-27T04:50:06.579Z,0.00
2022-08-27T04:51:06.537Z,5.62
2022-08-27T04:52:06.512Z,5.62
2022-08-27T04:53:06.500Z,5.62
2022-08-27T04:54:06.493Z,5.62
2022-08-27T04:55:06.479Z,5.62
2022-08-27T04:56:06.512Z,5.62
2022-08-27T04:57:07.461Z,5.62
2022-08-27T04:58:06.444Z,5.62
2022-08-27T04:59:07.439Z,5.62
2022-08-27T05:00:06.433Z,5.62
2022-08-27T05:01:06.463Z,5.62
2022-08-27T05:02:06.457Z,5.62
2022-08-27T05:03:38.288Z,5.62
2022-08-27T05:04:06.388Z,5.62
2022-08-27T05:05:06.439Z,5.62
2022-08-27T05:06:06.394Z,5.62
2022-08-27T05:07:06.376Z,5.62
2022-08-27T05:08:06.983Z,5.62
2022-08-27T05:09:06.341Z,5.62
2022-08-27T05:10:06.323Z,5.62
2022-08-27T05:11:07.326Z,5.62
2022-08-27T05:12:06.330Z,5.62
2022-08-27T05:13:06.304Z,5.62
2022-08-27T05:14:06.295Z,5.62
2022-08-27T05:15:06.289Z,5.62
2022-08-27T05:16:06.329Z,5.62
2022-08-27T05:17:06.297Z,5.62
2022-08-27T05:18:06.258Z,5.62
2022-08-27T05:19:06.256Z,11.25
2022-08-27T05:20:06.239Z,11.25
2022-08-27T05:21:06.228Z,11.25
2022-08-27T05:22:06.244Z,11.25
2022-08-27T05:23:06.206Z,11.25
2022-08-27T05:24:06.196Z,11.25
2022-08-27T05:25:06.189Z,16.88
2022-08-27T05:26:06.180Z,16.88
2022-08-27T05:27:06.175Z,11.25
2022-08-27T05:28:06.172Z,16.88
2022-08-27T05:29:06.147Z,16.88
2022-08-27T05:30:06.137Z,16.88
2022-08-27T05:31:06.181Z,22.50
2022-08-27T05:32:07.116Z,22.50
2022-08-27T05:33:06.120Z,22.50
2022-08-27T05:34:10.236Z,28.12
2022-08-27T05:35:07.085Z,28.12
2022-08-27T05:36:06.093Z,28.12
2022-08-27T05:37:06.069Z,28.12
2022-08-27T05:38:06.145Z,28.12
2022-08-27T05:39:06.156Z,33.75
2022-08-27T05:40:06.036Z,33.75
2022-08-27T05:41:06.029Z,39.38
2022-08-27T05:42:06.036Z,39.38
2022-08-27T05:43:06.056Z,33.75
2022-08-27T05:44:24.067Z,28.12
2022-08-27T05:45:07.995Z,33.75
2022-08-27T05:46:05.999Z,28.12
2022-08-27T05:47:06.006Z,28.12
2022-08-27T05:48:06.000Z,22.50
2022-08-27T05:49:05.950Z,22.50
2022-08-27T05:50:05.947Z,22.50
2022-08-27T05:51:05.932Z,22.50
2022-08-27T05:52:05.918Z,22.50
2022-08-27T05:53:05.910Z,22.50
2022-08-27T05:54:08.812Z,28.12
2022-08-27T05:55:06.889Z,28.12
2022-08-27T05:56:05.882Z,28.12
2022-08-27T05:57:05.869Z,28.12
2022-08-27T05:58:05.860Z,28.12
2022-08-27T05:59:05.868Z,28.12
2022-08-27T06:00:05.851Z,28.12
2022-08-27T06:01:09.965Z,28.12
2022-08-27T06:02:07.056Z,28.12
2022-08-27T06:03:05.816Z,22.50
2022-08-27T06:04:05.887Z,22.50
2022-08-27T06:05:05.865Z,22.50
2022-08-27T06:06:05.783Z,22.50
2022-08-27T06:07:05.774Z,22.50
2022-08-27T06:08:05.765Z,28.12
2022-08-27T06:09:05.805Z,28.12
2022-08-27T06:10:05.790Z,28.12
2022-08-27T06:11:05.738Z,28.12
2022-08-27T06:12:05.725Z,28.12
2022-08-27T06:13:05.718Z,28.12
2022-08-27T06:14:05.705Z,33.75
2022-08-27T06:15:05.718Z,39.38
2022-08-27T06:16:06.655Z,39.38
2022-08-27T06:17:05.680Z,39.38
2022-08-27T06:18:05.699Z,45.00
2022-08-27T06:19:05.659Z,45.00
2022-08-27T06:20:05.695Z,45.00
2022-08-27T06:21:05.647Z,45.00
2022-08-27T06:22:10.626Z,45.00
2022-08-27T06:23:06.624Z,45.00
2022-08-27T06:24:05.608Z,45.00
2022-08-27T06:25:05.620Z,39.38
2022-08-27T06:26:05.588Z,45.00
2022-08-27T06:27:05.584Z,45.00
2022-08-27T06:28:06.659Z,45.00
2022-08-27T06:29:05.567Z,39.38
2022-08-27T06:30:05.602Z,39.38
2022-08-27T06:31:05.573Z,45.00
2022-08-27T06:32:05.539Z,50.62
2022-08-27T06:33:05.528Z,50.62
2022-08-27T06:34:07.628Z,50.62
2022-08-27T06:35:05.547Z,50.62
2022-08-27T06:36:05.496Z,56.25
2022-08-27T06:37:05.484Z,56.25
2022-08-27T06:38:05.478Z,56.25
2022-08-27T06:39:05.471Z,56.25
2022-08-27T06:40:05.512Z,50.62
2022-08-27T06:41:05.461Z,50.62
2022-08-27T06:42:05.435Z,50.62
2022-08-27T06:43:05.424Z,45.00
2022-08-27T06:44:05.450Z,45.00
2022-08-27T06:45:05.415Z,39.38
2022-08-27T06:46:05.452Z,33.75
2022-08-27T06:47:05.389Z,33.75
2022-08-27T06:48:05.384Z,28.12
2022-08-27T06:49:05.389Z,28.12
2022-08-27T06:50:05.364Z,22.50
2022-08-27T06:51:05.391Z,22.50
2022-08-27T06:52:05.349Z,22.50
2022-08-27T06:53:05.332Z,28.12
2022-08-27T06:54:05.321Z,28.12
2022-08-27T06:55:05.313Z,28.12
2022-08-27T06:56:05.311Z,22.50
2022-08-27T06:57:05.316Z,22.50
2022-08-27T06:58:05.321Z,22.50
2022-08-27T06:59:05.276Z,28.12
2022-08-27T07:00:06.262Z,28.12
2022-08-27T07:01:05.279Z,22.50
2022-08-27T07:02:05.410Z,22.50
2022-08-27T07:03:05.237Z,22.50
2022-08-27T07:04:05.629Z,28.12
2022-08-27T07:05:05.218Z,28.12
2022-08-27T07:06:05.213Z,28.12
2022-08-27T07:07:05.221Z,28.12
2022-08-27T07:08:05.198Z,28.12
2022-08-27T07:09:05.180Z,33.75
2022-08-27T07:10:05.167Z,33.75
2022-08-27T07:11:05.160Z,45.00
2022-08-27T07:12:05.215Z,45.00
2022-08-27T07:13:05.138Z,45.00
2022-08-27T07:14:05.132Z,45.00
2022-08-27T07:15:05.128Z,45.00
2022-08-27T07:16:05.163Z,45.00
2022-08-27T07:17:05.132Z,45.00
2022-08-27T07:18:05.090Z,39.38
2022-08-27T07:19:05.094Z,39.38
2022-08-27T07:20:05.073Z,39.38
2022-08-27T07:21:05.061Z,39.38
2022-08-27T07:22:05.056Z,39.38
2022-08-27T07:23:08.337Z,45.00
2022-08-27T07:24:07.034Z,45.00
2022-08-27T07:25:05.026Z,45.00
2022-08-27T07:26:05.035Z,45.00
2022-08-27T07:27:04.996Z,50.62
2022-08-27T07:28:05.008Z,50.62
2022-08-27T07:29:04.989Z,50.62
2022-08-27T07:30:04.984Z,50.62
2022-08-27T07:31:05.037Z,50.62
2022-08-27T07:32:04.967Z,50.62
2022-08-27T07:33:04.960Z,56.25
2022-08-27T07:34:04.932Z,50.62
2022-08-27T07:35:04.918Z,50.62
2022-08-27T07:36:05.918Z,56.25
2022-08-27T07:37:04.907Z,56.25
2022-08-27T07:38:04.937Z,56.25
2022-08-27T07:39:04.889Z,56.25
2022-08-27T07:40:04.913Z,61.88
2022-08-27T07:41:04.868Z,67.50
2022-08-27T07:42:04.858Z,84.38
2022-08-27T07:43:04.891Z,95.62
2022-08-27T07:44:04.844Z,95.62
2022-08-27T07:45:04.830Z,95.62
2022-08-27T07:46:04.856Z,101.25
2022-08-27T07:47:04.812Z,112.50
2022-08-27T07:48:04.841Z,123.75
2022-08-27T07:49:04.810Z,135.00
2022-08-27T07:50:04.794Z,157.50
2022-08-27T07:51:04.789Z,174.38
2022-08-27T07:52:04.764Z,168.75
2022-08-27T07:53:04.761Z,180.00
2022-08-27T07:54:04.759Z,196.88
2022-08-27T07:55:04.732Z,191.25
2022-08-27T07:56:04.725Z,185.62
2022-08-27T07:57:04.717Z,185.62
2022-08-27T07:58:04.703Z,191.25
2022-08-27T07:59:04.720Z,202.50
2022-08-27T08:00:04.699Z,191.25
2022-08-27T08:01:04.719Z,185.62
2022-08-27T08:02:04.743Z,168.75
2022-08-27T08:03:04.663Z,157.50
2022-08-27T08:04:04.666Z,146.25
2022-08-27T08:05:04.634Z,135.00
2022-08-27T08:06:04.627Z,118.12
2022-08-27T08:07:04.621Z,112.50
2022-08-27T08:08:04.617Z,112.50
2022-08-27T08:09:04.673Z,106.88
2022-08-27T08:10:04.607Z,106.88
2022-08-27T08:11:04.583Z,101.25
2022-08-27T08:12:04.576Z,106.88
2022-08-27T08:13:04.564Z,118.12
2022-08-27T08:14:04.568Z,129.38
2022-08-27T08:15:04.548Z,140.62
2022-08-27T08:16:04.533Z,123.75
2022-08-27T08:17:05.649Z,106.88
2022-08-27T08:18:05.520Z,112.50
2022-08-27T08:19:04.524Z,118.12
2022-08-27T08:20:31.136Z,118.12
2022-08-27T08:21:06.487Z,112.50
2022-08-27T08:22:05.879Z,112.50
2022-08-27T08:23:05.472Z,118.12
2022-08-27T08:24:04.493Z,118.12
2022-08-27T08:25:04.458Z,123.75
2022-08-27T08:26:04.442Z,135.00
2022-08-27T08:27:07.396Z,140.62
2022-08-27T08:28:05.419Z,140.62
2022-08-27T08:29:04.478Z,129.38
2022-08-27T08:30:04.404Z,123.75
2022-08-27T08:31:04.427Z,123.75
2022-08-27T08:32:04.381Z,146.25
2022-08-27T08:33:04.373Z,163.12
2022-08-27T08:34:04.367Z,163.12
2022-08-27T08:35:04.368Z,168.75
2022-08-27T08:36:04.346Z,163.12
2022-08-27T08:37:04.336Z,163.12
2022-08-27T08:38:04.359Z,146.25
2022-08-27T08:39:04.317Z,135.00
2022-08-27T08:40:04.347Z,129.38
2022-08-27T08:41:04.315Z,129.38
2022-08-27T08:42:04.293Z,135.00
2022-08-27T08:43:04.282Z,135.00
2022-08-27T08:44:05.821Z,151.88
2022-08-27T08:45:05.277Z,168.75
2022-08-27T08:46:04.297Z,151.88
2022-08-27T08:47:04.240Z,135.00
2022-08-27T08:48:04.256Z,135.00
2022-08-27T08:49:04.219Z,129.38
2022-08-27T08:50:04.228Z,118.12
2022-08-27T08:51:04.203Z,118.12
2022-08-27T08:52:04.189Z,123.75
2022-08-27T08:53:04.184Z,140.62
2022-08-27T08:54:04.189Z,140.62
2022-08-27T08:55:04.179Z,129.38
2022-08-27T08:56:04.244Z,135.00
2022-08-27T08:57:04.146Z,146.25
2022-08-27T08:58:04.174Z,151.88
2022-08-27T08:59:04.127Z,140.62
2022-08-27T09:00:04.137Z,140.62
2022-08-27T09:01:04.143Z,151.88
2022-08-27T09:02:04.100Z,146.25
2022-08-27T09:03:04.091Z,157.50
2022-08-27T09:04:04.218Z,157.50
2022-08-27T09:05:04.094Z,163.12
2022-08-27T09:06:04.055Z,174.38
2022-08-27T09:07:04.045Z,174.38
2022-08-27T09:08:28.519Z,180.00
2022-08-27T09:09:06.024Z,191.25
2022-08-27T09:10:04.050Z,185.62
2022-08-27T09:11:04.010Z,202.50
2022-08-27T09:12:03.995Z,219.38
2022-08-27T09:13:03.992Z,230.62
2022-08-27T09:14:03.987Z,241.88
2022-08-27T09:15:03.968Z,208.12
2022-08-27T09:16:04.006Z,196.88
2022-08-27T09:17:09.430Z,196.88
2022-08-27T09:18:04.940Z,196.88
2022-08-27T09:19:06.066Z,208.12
2022-08-27T09:20:03.922Z,225.00
2022-08-27T09:21:08.708Z,208.12
2022-08-27T09:22:04.902Z,185.62
2022-08-27T09:23:03.891Z,191.25
2022-08-27T09:24:03.890Z,202.50
2022-08-27T09:25:03.871Z,196.88
2022-08-27T09:26:03.878Z,185.62
2022-08-27T09:27:03.855Z,174.38
2022-08-27T09:28:03.924Z,174.38
2022-08-27T09:29:03.834Z,191.25
2022-08-27T09:30:03.825Z,196.88
2022-08-27T09:31:03.880Z,191.25
2022-08-27T09:32:03.805Z,196.88
2022-08-27T09:33:03.798Z,196.88
2022-08-27T09:34:03.797Z,191.25
2022-08-27T09:35:03.781Z,191.25
2022-08-27T09:36:03.787Z,191.25
2022-08-27T09:37:03.774Z,191.25
2022-08-27T09:38:03.767Z,196.88
2022-08-27T09:39:03.737Z,191.25
2022-08-27T09:40:03.766Z,180.00
2022-08-27T09:41:03.747Z,163.12
2022-08-27T09:42:03.708Z,151.88
2022-08-27T09:43:03.698Z,146.25
2022-08-27T09:44:03.690Z,151.88
2022-08-27T09:45:03.682Z,163.12
2022-08-27T09:46:03.762Z,163.12
2022-08-27T09:47:03.666Z,163.12
2022-08-27T09:48:03.753Z,151.88
2022-08-27T09:49:03.639Z,151.88
2022-08-27T09:50:06.895Z,163.12
2022-08-27T09:51:03.623Z,168.75
2022-08-27T09:52:03.632Z,180.00
2022-08-27T09:53:03.603Z,180.00
2022-08-27T09:54:03.594Z,174.38
2022-08-27T09:55:03.583Z,174.38
2022-08-27T09:56:03.576Z,180.00
2022-08-27T09:57:03.580Z,168.75
2022-08-27T09:58:03.637Z,163.12
2022-08-27T09:59:03.547Z,157.50
2022-08-27T10:00:03.536Z,163.12
2022-08-27T10:01:03.566Z,163.12
2022-08-27T10:02:04.388Z,168.75
2022-08-27T10:03:03.509Z,174.38
2022-08-27T10:04:03.569Z,168.75
2022-08-27T10:05:03.490Z,168.75
2022-08-27T10:06:03.481Z,157.50
2022-08-27T10:07:03.510Z,157.50
2022-08-27T10:08:03.592Z,163.12
2022-08-27T10:09:07.066Z,168.75
2022-08-27T10:10:04.471Z,168.75
2022-08-27T10:11:03.450Z,168.75
2022-08-27T10:12:03.464Z,174.38
2022-08-27T10:13:10.270Z,174.38
2022-08-27T10:14:04.405Z,185.62
2022-08-27T10:15:03.392Z,202.50
2022-08-27T10:16:03.422Z,208.12
2022-08-27T10:17:03.372Z,208.12
2022-08-27T10:18:03.381Z,202.50
2022-08-27T10:19:03.353Z,225.00
2022-08-27T10:20:03.345Z,225.00
2022-08-27T10:21:05.817Z,196.88
2022-08-27T10:22:04.325Z,174.38
2022-08-27T10:23:03.332Z,157.50
2022-08-27T10:24:03.306Z,146.25
2022-08-27T10:25:03.295Z,140.62
2022-08-27T10:26:03.288Z,140.62
2022-08-27T10:27:03.315Z,146.25
2022-08-27T10:28:03.282Z,151.88
2022-08-27T10:29:03.253Z,151.88
2022-08-27T10:30:03.254Z,157.50
2022-08-27T10:31:03.238Z,168.75
2022-08-27T10:32:03.273Z,168.75
2022-08-27T10:33:03.927Z,163.12
2022-08-27T10:34:03.212Z,151.88
2022-08-27T10:35:03.202Z,151.88
2022-08-27T10:36:03.191Z,151.88
2022-08-27T10:37:07.768Z,157.50
2022-08-27T10:38:03.180Z,168.75
2022-08-27T10:39:03.159Z,180.00
2022-08-27T10:40:03.213Z,185.62
2022-08-27T10:41:03.144Z,185.62
2022-08-27T10:42:03.128Z,191.25
2022-08-27T10:43:03.139Z,202.50
2022-08-27T10:44:03.110Z,208.12
2022-08-27T10:45:03.133Z,225.00
2022-08-27T10:46:03.172Z,225.00
2022-08-27T10:47:03.107Z,219.38
2022-08-27T10:48:03.088Z,208.12
2022-08-27T10:49:03.072Z,191.25
2022-08-27T10:50:03.077Z,185.62
2022-08-27T10:51:03.042Z,185.62
2022-08-27T10:52:06.468Z,196.88
2022-08-27T10:53:05.041Z,213.75
2022-08-27T10:54:03.012Z,241.88
2022-08-27T10:55:02.999Z,264.38
2022-08-27T10:56:02.994Z,270.00
2022-08-27T10:57:24.570Z,264.38
2022-08-27T10:58:04.992Z,258.75
2022-08-27T10:59:02.969Z,241.88
2022-08-27T11:00:02.959Z,236.25
2022-08-27T11:01:02.966Z,230.62
2022-08-27T11:02:03.051Z,213.75
2022-08-27T11:03:02.941Z,208.12
2022-08-27T11:04:02.920Z,196.88
2022-08-27T11:05:02.907Z,191.25
2022-08-27T11:06:02.900Z,191.25
2022-08-27T11:07:02.890Z,191.25
2022-08-27T11:08:02.908Z,191.25
2022-08-27T11:09:07.454Z,191.25
2022-08-27T11:10:02.856Z,185.62
2022-08-27T11:11:26.045Z,174.38
2022-08-27T11:12:20.183Z,174.38
2022-08-27T11:13:04.867Z,174.38
2022-08-27T11:14:02.822Z,174.38
2022-08-27T11:15:02.809Z,168.75
2022-08-27T11:16:02.875Z,168.75
2022-08-27T11:17:02.789Z,174.38
2022-08-27T11:18:02.792Z,180.00
2022-08-27T11:19:02.791Z,185.62
2022-08-27T11:20:02.764Z,185.62
2022-08-27T11:21:02.750Z,185.62
2022-08-27T11:22:02.735Z,185.62
2022-08-27T11:23:02.749Z,180.00
2022-08-27T11:24:02.736Z,180.00
2022-08-27T11:25:02.718Z,174.38
2022-08-27T11:26:02.816Z,168.75
2022-08-27T11:27:02.692Z,163.12
2022-08-27T11:28:02.720Z,163.12
2022-08-27T11:29:02.700Z,163.12
2022-08-27T11:30:02.691Z,157.50
2022-08-27T11:31:02.658Z,157.50
2022-08-27T11:32:02.715Z,163.12
2022-08-27T11:33:02.653Z,174.38
2022-08-27T11:34:02.650Z,180.00
2022-08-27T11:35:02.615Z,185.62
2022-08-27T11:36:02.610Z,191.25
2022-08-27T11:37:02.600Z,202.50
2022-08-27T11:38:02.647Z,202.50
2022-08-27T11:39:02.596Z,185.62
2022-08-27T11:40:02.610Z,168.75
2022-08-27T11:41:02.552Z,157.50
2022-08-27T11:42:02.558Z,157.50
2022-08-27T11:43:02.552Z,163.12
2022-08-27T11:44:02.542Z,174.38
2022-08-27T11:45:02.521Z,185.62
2022-08-27T11:46:02.509Z,191.25
2022-08-27T11:47:02.541Z,191.25
2022-08-27T11:48:02.503Z,185.62
2022-08-27T11:49:02.530Z,168.75
2022-08-27T11:50:02.469Z,163.12
2022-08-27T11:51:02.469Z,168.75
2022-08-27T11:52:02.454Z,174.38
2022-08-27T11:53:02.508Z,180.00
2022-08-27T11:54:02.451Z,180.00
2022-08-27T11:55:02.427Z,168.75
2022-08-27T11:56:02.416Z,151.88
2022-08-27T11:57:02.413Z,140.62
2022-08-27T11:58:02.412Z,140.62
2022-08-27T11:59:02.396Z,135.00
2022-08-27T12:00:02.419Z,135.00
2022-08-27T12:01:04.760Z,140.62
2022-08-27T12:02:03.357Z,146.25
2022-08-27T12:03:02.526Z,146.25
2022-08-27T12:04:02.441Z,146.25
2022-08-27T12:05:02.376Z,146.25
2022-08-27T12:06:02.318Z,151.88
2022-08-27T12:07:02.306Z,151.88
2022-08-27T12:08:02.314Z,140.62
2022-08-27T12:09:02.302Z,129.38
2022-08-27T12:10:02.276Z,123.75
2022-08-27T12:11:02.268Z,123.75
2022-08-27T12:12:02.258Z,129.38
2022-08-27T12:13:02.266Z,129.38
2022-08-27T12:14:02.257Z,129.38
2022-08-27T12:15:02.226Z,123.75
2022-08-27T12:16:02.252Z,118.12
2022-08-27T12:17:02.212Z,118.12
2022-08-27T12:18:02.217Z,112.50
2022-08-27T12:19:02.213Z,112.50
2022-08-27T12:20:02.182Z,106.88
2022-08-27T12:21:02.197Z,101.25
2022-08-27T12:22:02.170Z,101.25
2022-08-27T12:23:02.159Z,101.25
2022-08-27T12:24:02.172Z,95.62
2022-08-27T12:25:02.146Z,95.62
2022-08-27T12:26:02.130Z,95.62
2022-08-27T12:27:02.127Z,95.62
2022-08-27T12:28:02.111Z,95.62
2022-08-27T12:29:02.116Z,95.62
2022-08-27T12:30:02.109Z,95.62
2022-08-27T12:31:02.080Z,95.62
2022-08-27T12:32:02.130Z,95.62
2022-08-27T12:33:02.063Z,101.25
2022-08-27T12:34:02.062Z,106.88
2022-08-27T12:35:02.041Z,112.50
2022-08-27T12:36:02.035Z,118.12
2022-08-27T12:37:02.023Z,123.75
2022-08-27T12:38:03.009Z,129.38
2022-08-27T12:39:02.036Z,140.62
2022-08-27T12:40:02.026Z,140.62
2022-08-27T12:41:02.029Z,146.25
2022-08-27T12:42:01.975Z,146.25
2022-08-27T12:43:01.969Z,146.25
2022-08-27T12:44:02.005Z,146.25
2022-08-27T12:45:01.946Z,146.25
2022-08-27T12:46:01.944Z,146.25
2022-08-27T12:47:02.020Z,157.50
2022-08-27T12:48:02.919Z,157.50
2022-08-27T12:49:12.815Z,157.50
2022-08-27T12:50:02.931Z,163.12
2022-08-27T12:51:01.884Z,157.50
2022-08-27T12:52:01.877Z,157.50
2022-08-27T12:53:01.870Z,163.12